sensor_id;sensor_type;location;lat;lon;timestamp;P1;durP1;ratioP1;P2;durP2;ratioP2
61188;SDS011;47054;39.716;2.904;2022-08-24T00:01:31;3.25;;;1.55;;
61188;SDS011;47054;39.716;2.904;2022-08-24T00:04:15;3.80;;;1.80;;
61188;SDS011;47054;39.716;2.904;2022-08-24T00:07:00;4.43;;;1.88;;
61188;SDS011;47054;39.716;2.904;2022-08-24T00:09:46;3.10;;;1.50;;
61188;SDS011;47054;39.716;2.904;2022-08-24T00:12:31;3.92;;;1.77;;
61188;SDS011;47054;39.716;2.904;2022-08-24T00:15:15;4.43;;;1.90;;
61188;SDS011;47054;39.716;2.904;2022-08-24T00:18:00;6.85;;;1.90;;
61188;SDS011;47054;39.716;2.904;2022-08-24T00:20:45;3.88;;;1.80;;
61188;SDS011;47054;39.716;2.904;2022-08-24T00:23:29;5.90;;;1.77;;
61188;SDS011;47054;39.716;2.904;2022-08-24T00:26:14;3.97;;;1.67;;
61188;SDS011;47054;39.716;2.904;2022-08-24T00:28:58;4.53;;;1.77;;
61188;SDS011;47054;39.716;2.904;2022-08-24T00:31:44;4.80;;;1.85;;
61188;SDS011;47054;39.716;2.904;2022-08-24T00:34:29;2.45;;;1.60;;
61188;SDS011;47054;39.716;2.904;2022-08-24T00:37:14;3.65;;;1.70;;
61188;SDS011;47054;39.716;2.904;2022-08-24T00:39:59;2.67;;;1.58;;
61188;SDS011;47054;39.716;2.904;2022-08-24T00:42:44;6.47;;;1.80;;
61188;SDS011;47054;39.716;2.904;2022-08-24T00:45:30;2.58;;;1.63;;
61188;SDS011;47054;39.716;2.904;2022-08-24T00:48:19;7.47;;;1.90;;
61188;SDS011;47054;39.716;2.904;2022-08-24T00:51:12;6.53;;;1.85;;
61188;SDS011;47054;39.716;2.904;2022-08-24T00:54:17;3.13;;;1.70;;
61188;SDS011;47054;39.716;2.904;2022-08-24T00:57:04;6.65;;;1.65;;
61188;SDS011;47054;39.716;2.904;2022-08-24T01:00:05;5.50;;;1.80;;
61188;SDS011;47054;39.716;2.904;2022-08-24T01:02:55;2.25;;;1.63;;
61188;SDS011;47054;39.716;2.904;2022-08-24T01:05:44;3.55;;;1.60;;
61188;SDS011;47054;39.716;2.904;2022-08-24T01:08:30;3.35;;;1.85;;
61188;SDS011;47054;39.716;2.904;2022-08-24T01:11:17;4.63;;;1.90;;
61188;SDS011;47054;39.716;2.904;2022-08-24T01:14:04;5.40;;;1.60;;
61188;SDS011;47054;39.716;2.904;2022-08-24T01:16:50;5.35;;;2.03;;
61188;SDS011;47054;39.716;2.904;2022-08-24T01:19:54;8.15;;;2.00;;
61188;SDS011;47054;39.716;2.904;2022-08-24T01:23:00;3.60;;;1.85;;
61188;SDS011;47054;39.716;2.904;2022-08-24T01:25:46;4.45;;;1.85;;
61188;SDS011;47054;39.716;2.904;2022-08-24T01:28:30;5.00;;;1.70;;
61188;SDS011;47054;39.716;2.904;2022-08-24T01:31:17;6.75;;;1.88;;
61188;SDS011;47054;39.716;2.904;2022-08-24T01:34:03;4.22;;;1.90;;
61188;SDS011;47054;39.716;2.904;2022-08-24T01:36:50;4.57;;;1.88;;
61188;SDS011;47054;39.716;2.904;2022-08-24T01:39:40;8.65;;;1.90;;
61188;SDS011;47054;39.716;2.904;2022-08-24T01:42:27;3.40;;;1.73;;
61188;SDS011;47054;39.716;2.904;2022-08-24T01:45:13;5.13;;;1.90;;
61188;SDS011;47054;39.716;2.904;2022-08-24T01:47:58;5.38;;;1.73;;
61188;SDS011;47054;39.716;2.904;2022-08-24T01:50:44;4.47;;;1.85;;
61188;SDS011;47054;39.716;2.904;2022-08-24T01:53:29;2.53;;;1.60;;
61188;SDS011;47054;39.716;2.904;2022-08-24T01:56:14;3.78;;;1.80;;
61188;SDS011;47054;39.716;2.904;2022-08-24T01:58:59;7.00;;;1.77;;
61188;SDS011;47054;39.716;2.904;2022-08-24T02:04:54;3.67;;;1.88;;
61188;SDS011;47054;39.716;2.904;2022-08-24T02:07:40;7.25;;;1.90;;
61188;SDS011;47054;39.716;2.904;2022-08-24T02:10:25;4.85;;;1.55;;
61188;SDS011;47054;39.716;2.904;2022-08-24T02:13:11;5.38;;;2.00;;
61188;SDS011;47054;39.716;2.904;2022-08-24T02:15:55;3.30;;;1.80;;
61188;SDS011;47054;39.716;2.904;2022-08-24T02:18:40;3.65;;;1.58;;
61188;SDS011;47054;39.716;2.904;2022-08-24T02:21:25;5.28;;;2.10;;
61188;SDS011;47054;39.716;2.904;2022-08-24T02:24:10;5.53;;;1.90;;
61188;SDS011;47054;39.716;2.904;2022-08-24T02:26:55;5.78;;;1.50;;
61188;SDS011;47054;39.716;2.904;2022-08-24T02:29:41;6.43;;;1.67;;
61188;SDS011;47054;39.716;2.904;2022-08-24T02:32:26;4.10;;;1.75;;
61188;SDS011;47054;39.716;2.904;2022-08-24T02:35:11;6.55;;;2.03;;
61188;SDS011;47054;39.716;2.904;2022-08-24T02:37:56;3.67;;;1.60;;
61188;SDS011;47054;39.716;2.904;2022-08-24T02:40:42;3.78;;;1.75;;
61188;SDS011;47054;39.716;2.904;2022-08-24T02:43:28;3.95;;;1.90;;
61188;SDS011;47054;39.716;2.904;2022-08-24T02:46:15;6.13;;;1.85;;
61188;SDS011;47054;39.716;2.904;2022-08-24T02:49:02;4.25;;;1.83;;
61188;SDS011;47054;39.716;2.904;2022-08-24T02:51:47;4.13;;;1.60;;
61188;SDS011;47054;39.716;2.904;2022-08-24T02:54:35;4.75;;;1.70;;
61188;SDS011;47054;39.716;2.904;2022-08-24T02:57:20;4.35;;;1.83;;
61188;SDS011;47054;39.716;2.904;2022-08-24T03:00:07;7.07;;;1.77;;
61188;SDS011;47054;39.716;2.904;2022-08-24T03:02:54;2.95;;;1.70;;
61188;SDS011;47054;39.716;2.904;2022-08-24T03:05:39;5.13;;;1.80;;
61188;SDS011;47054;39.716;2.904;2022-08-24T03:08:24;3.50;;;2.20;;
61188;SDS011;47054;39.716;2.904;2022-08-24T03:11:09;6.20;;;1.80;;
61188;SDS011;47054;39.716;2.904;2022-08-24T03:13:54;7.35;;;2.08;;
61188;SDS011;47054;39.716;2.904;2022-08-24T03:16:40;5.40;;;1.70;;
61188;SDS011;47054;39.716;2.904;2022-08-24T03:19:25;3.67;;;2.00;;
61188;SDS011;47054;39.716;2.904;2022-08-24T03:22:09;4.15;;;1.73;;
61188;SDS011;47054;39.716;2.904;2022-08-24T03:24:54;3.30;;;1.50;;
61188;SDS011;47054;39.716;2.904;2022-08-24T03:27:39;4.05;;;1.73;;
61188;SDS011;47054;39.716;2.904;2022-08-24T03:30:24;2.88;;;1.63;;
61188;SDS011;47054;39.716;2.904;2022-08-24T03:33:09;6.78;;;1.73;;
61188;SDS011;47054;39.716;2.904;2022-08-24T03:35:54;2.70;;;1.60;;
61188;SDS011;47054;39.716;2.904;2022-08-24T03:38:40;3.10;;;1.80;;
61188;SDS011;47054;39.716;2.904;2022-08-24T03:41:25;3.08;;;1.70;;
61188;SDS011;47054;39.716;2.904;2022-08-24T03:44:10;3.30;;;1.92;;
61188;SDS011;47054;39.716;2.904;2022-08-24T03:46:55;2.58;;;1.63;;
61188;SDS011;47054;39.716;2.904;2022-08-24T03:49:42;4.30;;;1.92;;
61188;SDS011;47054;39.716;2.904;2022-08-24T03:52:28;4.00;;;1.70;;
61188;SDS011;47054;39.716;2.904;2022-08-24T03:55:13;5.20;;;1.77;;
61188;SDS011;47054;39.716;2.904;2022-08-24T03:57:58;2.72;;;1.60;;
61188;SDS011;47054;39.716;2.904;2022-08-24T04:00:43;4.15;;;1.85;;
61188;SDS011;47054;39.716;2.904;2022-08-24T04:03:33;4.03;;;2.00;;
61188;SDS011;47054;39.716;2.904;2022-08-24T04:06:19;6.55;;;2.15;;
61188;SDS011;47054;39.716;2.904;2022-08-24T04:09:05;8.13;;;1.92;;
61188;SDS011;47054;39.716;2.904;2022-08-24T04:11:54;4.82;;;1.95;;
61188;SDS011;47054;39.716;2.904;2022-08-24T04:14:42;9.32;;;2.80;;
61188;SDS011;47054;39.716;2.904;2022-08-24T04:17:33;5.78;;;3.08;;
61188;SDS011;47054;39.716;2.904;2022-08-24T04:20:18;5.55;;;2.67;;
61188;SDS011;47054;39.716;2.904;2022-08-24T04:23:03;6.80;;;3.00;;
61188;SDS011;47054;39.716;2.904;2022-08-24T04:25:47;5.40;;;2.70;;
61188;SDS011;47054;39.716;2.904;2022-08-24T04:28:31;4.05;;;2.25;;
61188;SDS011;47054;39.716;2.904;2022-08-24T04:31:16;9.52;;;3.15;;
61188;SDS011;47054;39.716;2.904;2022-08-24T04:34:02;7.00;;;2.90;;
61188;SDS011;47054;39.716;2.904;2022-08-24T04:36:48;7.60;;;3.17;;
61188;SDS011;47054;39.716;2.904;2022-08-24T04:39:32;9.27;;;4.20;;
61188;SDS011;47054;39.716;2.904;2022-08-24T04:42:43;20.05;;;5.40;;
61188;SDS011;47054;39.716;2.904;2022-08-24T04:45:29;11.23;;;4.50;;
61188;SDS011;47054;39.716;2.904;2022-08-24T04:48:14;7.10;;;3.85;;
61188;SDS011;47054;39.716;2.904;2022-08-24T04:51:05;8.98;;;4.00;;
61188;SDS011;47054;39.716;2.904;2022-08-24T04:53:51;9.75;;;3.88;;
61188;SDS011;47054;39.716;2.904;2022-08-24T04:56:36;10.43;;;4.70;;
61188;SDS011;47054;39.716;2.904;2022-08-24T04:59:22;11.05;;;5.20;;
61188;SDS011;47054;39.716;2.904;2022-08-24T05:02:06;6.53;;;3.67;;
61188;SDS011;47054;39.716;2.904;2022-08-24T05:04:52;8.65;;;3.38;;
61188;SDS011;47054;39.716;2.904;2022-08-24T05:07:39;6.70;;;3.05;;
61188;SDS011;47054;39.716;2.904;2022-08-24T05:10:24;5.63;;;3.15;;
61188;SDS011;47054;39.716;2.904;2022-08-24T05:13:09;6.97;;;2.53;;
61188;SDS011;47054;39.716;2.904;2022-08-24T05:15:53;8.40;;;2.45;;
61188;SDS011;47054;39.716;2.904;2022-08-24T05:18:38;6.10;;;2.65;;
61188;SDS011;47054;39.716;2.904;2022-08-24T05:21:24;8.45;;;2.90;;
61188;SDS011;47054;39.716;2.904;2022-08-24T05:24:13;4.72;;;2.60;;
61188;SDS011;47054;39.716;2.904;2022-08-24T05:26:58;6.32;;;2.58;;
61188;SDS011;47054;39.716;2.904;2022-08-24T05:29:44;5.05;;;2.30;;
61188;SDS011;47054;39.716;2.904;2022-08-24T05:32:30;4.43;;;2.00;;
61188;SDS011;47054;39.716;2.904;2022-08-24T05:35:15;7.78;;;2.22;;
61188;SDS011;47054;39.716;2.904;2022-08-24T05:38:00;3.90;;;2.00;;
61188;SDS011;47054;39.716;2.904;2022-08-24T05:40:51;7.00;;;2.57;;
61188;SDS011;47054;39.716;2.904;2022-08-24T05:43:40;3.78;;;2.30;;
61188;SDS011;47054;39.716;2.904;2022-08-24T05:46:24;5.20;;;2.20;;
61188;SDS011;47054;39.716;2.904;2022-08-24T05:49:09;6.63;;;2.35;;
61188;SDS011;47054;39.716;2.904;2022-08-24T05:51:54;4.95;;;2.30;;
61188;SDS011;47054;39.716;2.904;2022-08-24T05:54:39;8.98;;;2.15;;
61188;SDS011;47054;39.716;2.904;2022-08-24T05:57:24;4.10;;;2.10;;
61188;SDS011;47054;39.716;2.904;2022-08-24T06:00:48;4.57;;;1.90;;
61188;SDS011;47054;39.716;2.904;2022-08-24T06:03:33;3.97;;;2.00;;
61188;SDS011;47054;39.716;2.904;2022-08-24T06:06:19;4.22;;;1.98;;
61188;SDS011;47054;39.716;2.904;2022-08-24T06:09:05;5.28;;;1.80;;
61188;SDS011;47054;39.716;2.904;2022-08-24T06:11:50;5.20;;;1.90;;
61188;SDS011;47054;39.716;2.904;2022-08-24T06:14:35;4.28;;;1.80;;
61188;SDS011;47054;39.716;2.904;2022-08-24T06:17:21;3.42;;;2.03;;
61188;SDS011;47054;39.716;2.904;2022-08-24T06:20:07;3.33;;;1.90;;
61188;SDS011;47054;39.716;2.904;2022-08-24T06:22:52;4.90;;;1.85;;
61188;SDS011;47054;39.716;2.904;2022-08-24T06:25:37;9.63;;;2.20;;
61188;SDS011;47054;39.716;2.904;2022-08-24T06:28:41;5.07;;;1.75;;
61188;SDS011;47054;39.716;2.904;2022-08-24T06:31:27;8.77;;;2.20;;
61188;SDS011;47054;39.716;2.904;2022-08-24T06:34:12;4.82;;;1.58;;
61188;SDS011;47054;39.716;2.904;2022-08-24T06:37:00;6.60;;;1.80;;
61188;SDS011;47054;39.716;2.904;2022-08-24T06:39:44;9.60;;;2.22;;
61188;SDS011;47054;39.716;2.904;2022-08-24T06:42:34;3.85;;;2.20;;
61188;SDS011;47054;39.716;2.904;2022-08-24T06:45:19;4.90;;;1.85;;
61188;SDS011;47054;39.716;2.904;2022-08-24T06:48:05;4.53;;;1.70;;
61188;SDS011;47054;39.716;2.904;2022-08-24T06:50:50;4.97;;;2.60;;
61188;SDS011;47054;39.716;2.904;2022-08-24T06:53:36;8.20;;;2.97;;
61188;SDS011;47054;39.716;2.904;2022-08-24T06:56:22;5.63;;;2.00;;
61188;SDS011;47054;39.716;2.904;2022-08-24T06:59:07;6.32;;;2.30;;
61188;SDS011;47054;39.716;2.904;2022-08-24T07:01:51;6.70;;;2.25;;
61188;SDS011;47054;39.716;2.904;2022-08-24T07:04:37;5.97;;;2.30;;
61188;SDS011;47054;39.716;2.904;2022-08-24T07:07:21;5.07;;;2.30;;
61188;SDS011;47054;39.716;2.904;2022-08-24T07:10:07;6.60;;;2.08;;
61188;SDS011;47054;39.716;2.904;2022-08-24T07:12:53;5.07;;;2.40;;
61188;SDS011;47054;39.716;2.904;2022-08-24T07:15:37;5.57;;;2.15;;
61188;SDS011;47054;39.716;2.904;2022-08-24T07:18:29;5.22;;;2.30;;
61188;SDS011;47054;39.716;2.904;2022-08-24T07:21:13;5.65;;;2.30;;
61188;SDS011;47054;39.716;2.904;2022-08-24T07:24:03;7.28;;;2.28;;
61188;SDS011;47054;39.716;2.904;2022-08-24T07:26:52;7.40;;;2.30;;
61188;SDS011;47054;39.716;2.904;2022-08-24T07:29:37;5.45;;;2.65;;
61188;SDS011;47054;39.716;2.904;2022-08-24T07:32:23;7.50;;;2.75;;
61188;SDS011;47054;39.716;2.904;2022-08-24T07:35:09;5.13;;;2.30;;
61188;SDS011;47054;39.716;2.904;2022-08-24T07:37:54;5.57;;;2.55;;
61188;SDS011;47054;39.716;2.904;2022-08-24T07:40:40;4.13;;;2.28;;
61188;SDS011;47054;39.716;2.904;2022-08-24T07:43:30;6.50;;;2.42;;
61188;SDS011;47054;39.716;2.904;2022-08-24T07:46:14;7.10;;;2.30;;
61188;SDS011;47054;39.716;2.904;2022-08-24T07:48:59;8.90;;;2.50;;
61188;SDS011;47054;39.716;2.904;2022-08-24T07:51:44;6.78;;;2.60;;
61188;SDS011;47054;39.716;2.904;2022-08-24T07:54:28;6.07;;;2.33;;
61188;SDS011;47054;39.716;2.904;2022-08-24T07:57:15;7.40;;;2.55;;
61188;SDS011;47054;39.716;2.904;2022-08-24T08:00:00;7.93;;;2.35;;
61188;SDS011;47054;39.716;2.904;2022-08-24T08:02:47;9.30;;;2.85;;
61188;SDS011;47054;39.716;2.904;2022-08-24T08:05:36;8.68;;;2.80;;
61188;SDS011;47054;39.716;2.904;2022-08-24T08:08:23;11.25;;;3.95;;
61188;SDS011;47054;39.716;2.904;2022-08-24T08:11:12;8.23;;;3.55;;
61188;SDS011;47054;39.716;2.904;2022-08-24T08:13:58;9.68;;;3.40;;
61188;SDS011;47054;39.716;2.904;2022-08-24T08:16:43;8.90;;;3.00;;
61188;SDS011;47054;39.716;2.904;2022-08-24T08:19:27;7.03;;;2.92;;
61188;SDS011;47054;39.716;2.904;2022-08-24T08:22:11;6.88;;;2.90;;
61188;SDS011;47054;39.716;2.904;2022-08-24T08:25:47;4.78;;;2.30;;
61188;SDS011;47054;39.716;2.904;2022-08-24T08:28:38;4.93;;;2.25;;
61188;SDS011;47054;39.716;2.904;2022-08-24T08:31:22;5.00;;;2.20;;
61188;SDS011;47054;39.716;2.904;2022-08-24T08:34:07;4.45;;;2.33;;
61188;SDS011;47054;39.716;2.904;2022-08-24T08:36:54;6.15;;;1.95;;
61188;SDS011;47054;39.716;2.904;2022-08-24T08:39:38;4.97;;;1.98;;
61188;SDS011;47054;39.716;2.904;2022-08-24T08:49:33;6.72;;;2.10;;
61188;SDS011;47054;39.716;2.904;2022-08-24T08:55:56;4.82;;;2.17;;
61188;SDS011;47054;39.716;2.904;2022-08-24T08:58:55;4.35;;;1.85;;
61188;SDS011;47054;39.716;2.904;2022-08-24T09:21:44;4.57;;;2.00;;
61188;SDS011;47054;39.716;2.904;2022-08-24T09:28:18;3.80;;;1.95;;
61188;SDS011;47054;39.716;2.904;2022-08-24T09:34:32;5.32;;;1.98;;
61188;SDS011;47054;39.716;2.904;2022-08-24T09:37:25;3.78;;;2.05;;
61188;SDS011;47054;39.716;2.904;2022-08-24T09:46:26;3.80;;;1.75;;
61188;SDS011;47054;39.716;2.904;2022-08-24T10:07:35;5.28;;;1.90;;
61188;SDS011;47054;39.716;2.904;2022-08-24T10:36:22;7.85;;;2.30;;
61188;SDS011;47054;39.716;2.904;2022-08-24T10:54:43;6.00;;;2.10;;
61188;SDS011;47054;39.716;2.904;2022-08-24T10:57:38;4.30;;;2.20;;
61188;SDS011;47054;39.716;2.904;2022-08-24T11:00:33;3.20;;;1.90;;
61188;SDS011;47054;39.716;2.904;2022-08-24T11:03:19;3.25;;;2.00;;
61188;SDS011;47054;39.716;2.904;2022-08-24T11:06:12;4.40;;;2.00;;
61188;SDS011;47054;39.716;2.904;2022-08-24T11:09:12;7.03;;;2.78;;
61188;SDS011;47054;39.716;2.904;2022-08-24T11:11:58;4.05;;;2.40;;
61188;SDS011;47054;39.716;2.904;2022-08-24T11:18:02;4.03;;;2.20;;
61188;SDS011;47054;39.716;2.904;2022-08-24T11:20:48;5.85;;;2.20;;
61188;SDS011;47054;39.716;2.904;2022-08-24T11:23:35;4.47;;;1.90;;
61188;SDS011;47054;39.716;2.904;2022-08-24T11:26:20;5.22;;;2.17;;
61188;SDS011;47054;39.716;2.904;2022-08-24T11:29:05;5.30;;;2.40;;
61188;SDS011;47054;39.716;2.904;2022-08-24T11:31:50;7.22;;;2.58;;
61188;SDS011;47054;39.716;2.904;2022-08-24T11:34:36;5.00;;;1.88;;
61188;SDS011;47054;39.716;2.904;2022-08-24T11:37:23;5.57;;;1.95;;
61188;SDS011;47054;39.716;2.904;2022-08-24T11:40:16;3.83;;;2.10;;
61188;SDS011;47054;39.716;2.904;2022-08-24T11:52:14;3.30;;;1.95;;
61188;SDS011;47054;39.716;2.904;2022-08-24T11:58:13;3.42;;;2.10;;
61188;SDS011;47054;39.716;2.904;2022-08-24T12:07:25;8.30;;;2.00;;
61188;SDS011;47054;39.716;2.904;2022-08-24T12:10:26;9.05;;;2.10;;
61188;SDS011;47054;39.716;2.904;2022-08-24T12:19:33;3.45;;;2.00;;
61188;SDS011;47054;39.716;2.904;2022-08-24T12:22:20;5.05;;;1.73;;
61188;SDS011;47054;39.716;2.904;2022-08-24T12:25:06;3.75;;;1.67;;
61188;SDS011;47054;39.716;2.904;2022-08-24T12:28:13;4.18;;;1.90;;
61188;SDS011;47054;39.716;2.904;2022-08-24T12:31:08;5.40;;;1.70;;
61188;SDS011;47054;39.716;2.904;2022-08-24T12:37:15;2.88;;;1.80;;
61188;SDS011;47054;39.716;2.904;2022-08-24T12:40:43;4.68;;;1.85;;
61188;SDS011;47054;39.716;2.904;2022-08-24T12:43:37;4.57;;;1.98;;
61188;SDS011;47054;39.716;2.904;2022-08-24T12:46:27;5.03;;;2.10;;
61188;SDS011;47054;39.716;2.904;2022-08-24T12:52:36;4.88;;;1.85;;
61188;SDS011;47054;39.716;2.904;2022-08-24T13:01:47;5.70;;;1.95;;
61188;SDS011;47054;39.716;2.904;2022-08-24T13:07:43;3.80;;;1.80;;
61188;SDS011;47054;39.716;2.904;2022-08-24T13:10:34;4.40;;;1.80;;
61188;SDS011;47054;39.716;2.904;2022-08-24T13:13:38;3.67;;;1.60;;
61188;SDS011;47054;39.716;2.904;2022-08-24T13:19:42;10.60;;;1.90;;
61188;SDS011;47054;39.716;2.904;2022-08-24T13:25:24;4.25;;;1.88;;
61188;SDS011;47054;39.716;2.904;2022-08-24T13:28:46;4.05;;;1.70;;
61188;SDS011;47054;39.716;2.904;2022-08-24T13:31:33;3.53;;;1.65;;
61188;SDS011;47054;39.716;2.904;2022-08-24T13:34:45;7.68;;;1.92;;
61188;SDS011;47054;39.716;2.904;2022-08-24T13:37:31;5.13;;;1.63;;
61188;SDS011;47054;39.716;2.904;2022-08-24T13:40:16;4.30;;;1.70;;
61188;SDS011;47054;39.716;2.904;2022-08-24T13:43:13;3.92;;;1.70;;
61188;SDS011;47054;39.716;2.904;2022-08-24T13:48:57;3.72;;;1.75;;
61188;SDS011;47054;39.716;2.904;2022-08-24T13:58:36;3.22;;;1.70;;
61188;SDS011;47054;39.716;2.904;2022-08-24T14:17:10;4.72;;;1.65;;
61188;SDS011;47054;39.716;2.904;2022-08-24T14:23:56;3.67;;;1.80;;
61188;SDS011;47054;39.716;2.904;2022-08-24T14:27:02;3.40;;;1.50;;
61188;SDS011;47054;39.716;2.904;2022-08-24T14:33:04;3.35;;;1.67;;
61188;SDS011;47054;39.716;2.904;2022-08-24T14:36:18;6.63;;;1.88;;
61188;SDS011;47054;39.716;2.904;2022-08-24T14:45:33;6.28;;;2.67;;
61188;SDS011;47054;39.716;2.904;2022-08-24T14:51:48;7.32;;;2.17;;
61188;SDS011;47054;39.716;2.904;2022-08-24T14:55:40;8.48;;;2.53;;
61188;SDS011;47054;39.716;2.904;2022-08-24T15:08:00;3.65;;;1.55;;
61188;SDS011;47054;39.716;2.904;2022-08-24T15:10:54;6.07;;;1.60;;
61188;SDS011;47054;39.716;2.904;2022-08-24T15:28:26;3.67;;;1.67;;
61188;SDS011;47054;39.716;2.904;2022-08-24T15:31:17;4.53;;;1.63;;
61188;SDS011;47054;39.716;2.904;2022-08-24T15:34:04;4.93;;;1.80;;
61188;SDS011;47054;39.716;2.904;2022-08-24T15:36:57;3.03;;;1.60;;
61188;SDS011;47054;39.716;2.904;2022-08-24T15:39:44;5.45;;;1.60;;
61188;SDS011;47054;39.716;2.904;2022-08-24T15:42:33;5.07;;;1.60;;
61188;SDS011;47054;39.716;2.904;2022-08-24T15:45:19;3.75;;;1.73;;
61188;SDS011;47054;39.716;2.904;2022-08-24T15:48:05;5.00;;;1.60;;
61188;SDS011;47054;39.716;2.904;2022-08-24T15:50:50;7.75;;;1.85;;
61188;SDS011;47054;39.716;2.904;2022-08-24T15:53:38;5.13;;;1.50;;
61188;SDS011;47054;39.716;2.904;2022-08-24T15:56:26;3.50;;;1.48;;
61188;SDS011;47054;39.716;2.904;2022-08-24T16:02:28;3.80;;;1.65;;
61188;SDS011;47054;39.716;2.904;2022-08-24T16:08:08;3.58;;;1.70;;
61188;SDS011;47054;39.716;2.904;2022-08-24T16:10:55;3.90;;;1.90;;
61188;SDS011;47054;39.716;2.904;2022-08-24T16:13:40;5.03;;;2.00;;
61188;SDS011;47054;39.716;2.904;2022-08-24T16:16:32;5.03;;;1.60;;
61188;SDS011;47054;39.716;2.904;2022-08-24T16:19:25;8.23;;;1.63;;
61188;SDS011;47054;39.716;2.904;2022-08-24T16:22:12;6.20;;;1.73;;
61188;SDS011;47054;39.716;2.904;2022-08-24T16:28:06;7.75;;;1.58;;
61188;SDS011;47054;39.716;2.904;2022-08-24T16:30:57;4.57;;;1.77;;
61188;SDS011;47054;39.716;2.904;2022-08-24T16:33:44;3.92;;;1.73;;
61188;SDS011;47054;39.716;2.904;2022-08-24T16:36:29;6.22;;;1.75;;
61188;SDS011;47054;39.716;2.904;2022-08-24T16:39:14;3.08;;;1.60;;
61188;SDS011;47054;39.716;2.904;2022-08-24T16:42:03;5.53;;;1.60;;
61188;SDS011;47054;39.716;2.904;2022-08-24T16:44:50;9.30;;;1.60;;
61188;SDS011;47054;39.716;2.904;2022-08-24T16:47:35;7.05;;;1.98;;
61188;SDS011;47054;39.716;2.904;2022-08-24T16:50:19;6.88;;;1.92;;
61188;SDS011;47054;39.716;2.904;2022-08-24T16:53:04;2.92;;;1.60;;
61188;SDS011;47054;39.716;2.904;2022-08-24T16:55:50;5.75;;;1.60;;
61188;SDS011;47054;39.716;2.904;2022-08-24T16:58:35;2.65;;;1.42;;
61188;SDS011;47054;39.716;2.904;2022-08-24T17:01:20;3.15;;;1.52;;
61188;SDS011;47054;39.716;2.904;2022-08-24T17:04:04;4.03;;;1.65;;
61188;SDS011;47054;39.716;2.904;2022-08-24T17:06:49;5.28;;;1.90;;
61188;SDS011;47054;39.716;2.904;2022-08-24T17:09:34;6.72;;;2.05;;
61188;SDS011;47054;39.716;2.904;2022-08-24T17:12:21;3.17;;;1.75;;
61188;SDS011;47054;39.716;2.904;2022-08-24T17:15:06;5.07;;;1.80;;
61188;SDS011;47054;39.716;2.904;2022-08-24T17:17:59;5.18;;;1.92;;
61188;SDS011;47054;39.716;2.904;2022-08-24T17:20:46;4.90;;;1.67;;
61188;SDS011;47054;39.716;2.904;2022-08-24T17:23:31;3.10;;;1.80;;
61188;SDS011;47054;39.716;2.904;2022-08-24T17:26:16;4.68;;;1.73;;
61188;SDS011;47054;39.716;2.904;2022-08-24T17:29:03;4.53;;;1.83;;
61188;SDS011;47054;39.716;2.904;2022-08-24T17:31:49;4.82;;;1.90;;
61188;SDS011;47054;39.716;2.904;2022-08-24T17:34:34;4.35;;;1.90;;
61188;SDS011;47054;39.716;2.904;2022-08-24T17:37:19;7.05;;;1.80;;
61188;SDS011;47054;39.716;2.904;2022-08-24T17:40:05;6.40;;;2.00;;
61188;SDS011;47054;39.716;2.904;2022-08-24T17:42:53;5.75;;;2.08;;
61188;SDS011;47054;39.716;2.904;2022-08-24T17:45:39;6.72;;;1.92;;
61188;SDS011;47054;39.716;2.904;2022-08-24T17:48:24;3.95;;;1.70;;
61188;SDS011;47054;39.716;2.904;2022-08-24T17:51:09;4.60;;;1.83;;
61188;SDS011;47054;39.716;2.904;2022-08-24T17:53:55;2.67;;;1.60;;
61188;SDS011;47054;39.716;2.904;2022-08-24T17:56:41;3.50;;;1.60;;
61188;SDS011;47054;39.716;2.904;2022-08-24T17:59:28;6.22;;;1.65;;
61188;SDS011;47054;39.716;2.904;2022-08-24T18:02:18;3.88;;;1.65;;
61188;SDS011;47054;39.716;2.904;2022-08-24T18:05:02;4.78;;;1.58;;
61188;SDS011;47054;39.716;2.904;2022-08-24T18:07:50;4.85;;;1.50;;
61188;SDS011;47054;39.716;2.904;2022-08-24T18:10:36;3.58;;;1.60;;
61188;SDS011;47054;39.716;2.904;2022-08-24T18:13:21;4.65;;;1.60;;
61188;SDS011;47054;39.716;2.904;2022-08-24T18:16:06;2.70;;;1.70;;
61188;SDS011;47054;39.716;2.904;2022-08-24T18:18:56;3.22;;;2.30;;
61188;SDS011;47054;39.716;2.904;2022-08-24T18:21:41;4.65;;;1.77;;
61188;SDS011;47054;39.716;2.904;2022-08-24T18:24:26;2.92;;;1.60;;
61188;SDS011;47054;39.716;2.904;2022-08-24T18:27:20;4.20;;;1.80;;
61188;SDS011;47054;39.716;2.904;2022-08-24T18:30:14;4.53;;;1.73;;
61188;SDS011;47054;39.716;2.904;2022-08-24T18:33:08;4.68;;;1.98;;
61188;SDS011;47054;39.716;2.904;2022-08-24T18:35:52;5.47;;;2.00;;
61188;SDS011;47054;39.716;2.904;2022-08-24T18:38:37;6.70;;;2.00;;
61188;SDS011;47054;39.716;2.904;2022-08-24T18:41:23;6.15;;;2.00;;
61188;SDS011;47054;39.716;2.904;2022-08-24T18:44:10;5.97;;;1.90;;
61188;SDS011;47054;39.716;2.904;2022-08-24T18:46:56;5.78;;;2.53;;
61188;SDS011;47054;39.716;2.904;2022-08-24T18:49:40;7.75;;;2.03;;
61188;SDS011;47054;39.716;2.904;2022-08-24T18:52:25;8.98;;;2.50;;
61188;SDS011;47054;39.716;2.904;2022-08-24T18:55:10;7.47;;;2.75;;
61188;SDS011;47054;39.716;2.904;2022-08-24T18:57:55;3.75;;;2.00;;
61188;SDS011;47054;39.716;2.904;2022-08-24T19:00:39;4.53;;;2.20;;
61188;SDS011;47054;39.716;2.904;2022-08-24T19:03:24;4.60;;;1.98;;
61188;SDS011;47054;39.716;2.904;2022-08-24T19:06:10;9.32;;;3.78;;
61188;SDS011;47054;39.716;2.904;2022-08-24T19:08:54;5.68;;;2.90;;
61188;SDS011;47054;39.716;2.904;2022-08-24T19:11:39;7.22;;;2.90;;
61188;SDS011;47054;39.716;2.904;2022-08-24T19:14:23;6.28;;;2.70;;
61188;SDS011;47054;39.716;2.904;2022-08-24T19:17:08;6.25;;;2.85;;
61188;SDS011;47054;39.716;2.904;2022-08-24T19:19:52;7.20;;;2.53;;
61188;SDS011;47054;39.716;2.904;2022-08-24T19:22:38;6.88;;;2.60;;
61188;SDS011;47054;39.716;2.904;2022-08-24T19:25:25;6.43;;;2.72;;
61188;SDS011;47054;39.716;2.904;2022-08-24T19:28:11;6.65;;;2.70;;
61188;SDS011;47054;39.716;2.904;2022-08-24T19:30:57;5.28;;;2.33;;
61188;SDS011;47054;39.716;2.904;2022-08-24T19:33:43;4.93;;;2.15;;
61188;SDS011;47054;39.716;2.904;2022-08-24T19:36:29;6.43;;;2.45;;
61188;SDS011;47054;39.716;2.904;2022-08-24T19:39:16;5.03;;;2.13;;
61188;SDS011;47054;39.716;2.904;2022-08-24T19:42:01;7.10;;;2.20;;
61188;SDS011;47054;39.716;2.904;2022-08-24T19:44:47;3.95;;;1.80;;
61188;SDS011;47054;39.716;2.904;2022-08-24T19:47:50;6.07;;;2.00;;
61188;SDS011;47054;39.716;2.904;2022-08-24T19:50:34;3.08;;;1.60;;
61188;SDS011;47054;39.716;2.904;2022-08-24T19:53:19;3.33;;;1.80;;
61188;SDS011;47054;39.716;2.904;2022-08-24T19:56:04;5.93;;;1.70;;
61188;SDS011;47054;39.716;2.904;2022-08-24T19:59:32;6.35;;;1.80;;
61188;SDS011;47054;39.716;2.904;2022-08-24T20:02:02;6.53;;;2.10;;
61188;SDS011;47054;39.716;2.904;2022-08-24T20:04:47;3.40;;;1.60;;
61188;SDS011;47054;39.716;2.904;2022-08-24T20:07:31;5.72;;;3.20;;
61188;SDS011;47054;39.716;2.904;2022-08-24T20:10:17;9.13;;;3.75;;
61188;SDS011;47054;39.716;2.904;2022-08-24T20:13:03;8.75;;;3.90;;
61188;SDS011;47054;39.716;2.904;2022-08-24T20:15:48;8.00;;;2.60;;
61188;SDS011;47054;39.716;2.904;2022-08-24T20:18:33;4.07;;;2.33;;
61188;SDS011;47054;39.716;2.904;2022-08-24T20:21:18;7.80;;;2.30;;
61188;SDS011;47054;39.716;2.904;2022-08-24T20:24:03;3.63;;;2.00;;
61188;SDS011;47054;39.716;2.904;2022-08-24T20:26:49;5.53;;;2.15;;
61188;SDS011;47054;39.716;2.904;2022-08-24T20:29:33;5.20;;;1.80;;
61188;SDS011;47054;39.716;2.904;2022-08-24T20:32:18;5.70;;;1.95;;
61188;SDS011;47054;39.716;2.904;2022-08-24T20:35:03;3.38;;;1.70;;
61188;SDS011;47054;39.716;2.904;2022-08-24T20:37:48;4.18;;;1.92;;
61188;SDS011;47054;39.716;2.904;2022-08-24T20:40:33;7.75;;;2.00;;
61188;SDS011;47054;39.716;2.904;2022-08-24T20:43:17;4.43;;;2.17;;
61188;SDS011;47054;39.716;2.904;2022-08-24T20:46:02;5.22;;;2.10;;